sensor_id;sensor_type;location;lat;lon;timestamp;pressure;altitude;pressure_sealevel;temperature;humidity
33163;BME280;29282;45.656;11.302;2023-12-04T00:02:20;99148.53;;;18.19;49.71
33163;BME280;29282;45.656;11.302;2023-12-04T00:04:45;99149.34;;;18.20;49.75
33163;BME280;29282;45.656;11.302;2023-12-04T00:07:11;99142.72;;;18.21;49.67
33163;BME280;29282;45.656;11.302;2023-12-04T00:09:36;99137.56;;;18.19;49.45
33163;BME280;29282;45.656;11.302;2023-12-04T00:12:02;99138.06;;;18.21;49.61
33163;BME280;29282;45.656;11.302;2023-12-04T00:14:27;99134.50;;;18.21;49.40
33163;BME280;29282;45.656;11.302;2023-12-04T00:16:53;99135.00;;;18.23;49.34
33163;BME280;29282;45.656;11.302;2023-12-04T00:19:18;99135.81;;;18.23;49.44
33163;BME280;29282;45.656;11.302;2023-12-04T00:21:44;99129.53;;;18.23;49.32
33163;BME280;29282;45.656;11.302;2023-12-04T00:24:09;99131.94;;;18.24;49.29
33163;BME280;29282;45.656;11.302;2023-12-04T00:26:35;99130.84;;;18.25;49.33
33163;BME280;29282;45.656;11.302;2023-12-04T00:29:00;99134.38;;;18.26;49.24
33163;BME280;29282;45.656;11.302;2023-12-04T00:31:26;99130.84;;;18.25;49.26
33163;BME280;29282;45.656;11.302;2023-12-04T00:33:52;99134.38;;;18.26;49.21
33163;BME280;29282;45.656;11.302;2023-12-04T00:36:17;99130.03;;;18.25;49.14
33163;BME280;29282;45.656;11.302;2023-12-04T00:38:44;99142.44;;;18.22;49.26
33163;BME280;29282;45.656;11.302;2023-12-04T00:41:10;99144.03;;;18.23;49.25
33163;BME280;29282;45.656;11.302;2023-12-04T00:43:36;99145.66;;;18.24;49.18
33163;BME280;29282;45.656;11.302;2023-12-04T00:46:02;99136.31;;;18.25;49.08
33163;BME280;29282;45.656;11.302;2023-12-04T00:48:28;99135.19;;;18.26;48.95
33163;BME280;29282;45.656;11.302;2023-12-04T00:50:54;99128.91;;;18.26;49.08
33163;BME280;29282;45.656;11.302;2023-12-04T00:53:20;99129.19;;;18.24;49.02
33163;BME280;29282;45.656;11.302;2023-12-04T00:55:45;99130.03;;;18.25;49.04
33163;BME280;29282;45.656;11.302;2023-12-04T00:58:11;99128.56;;;18.27;49.04
33163;BME280;29282;45.656;11.302;2023-12-04T01:00:36;99127.47;;;18.28;48.96
33163;BME280;29282;45.656;11.302;2023-12-04T01:03:02;99131.31;;;18.27;48.75
33163;BME280;29282;45.656;11.302;2023-12-04T01:05:27;99128.28;;;18.29;48.81
33163;BME280;29282;45.656;11.302;2023-12-04T01:07:53;99127.47;;;18.28;49.08
33163;BME280;29282;45.656;11.302;2023-12-04T01:10:21;99125.84;;;18.27;48.83
33163;BME280;29282;45.656;11.302;2023-12-04T01:12:47;99124.72;;;18.28;48.81
33163;BME280;29282;45.656;11.302;2023-12-04T01:15:13;99120.84;;;18.29;48.67
33163;BME280;29282;45.656;11.302;2023-12-04T01:17:39;99123.09;;;18.27;48.84
33163;BME280;29282;45.656;11.302;2023-12-04T01:20:05;99125.84;;;18.27;48.76
33163;BME280;29282;45.656;11.302;2023-12-04T01:22:30;99117.31;;;18.29;48.61
33163;BME280;29282;45.656;11.302;2023-12-04T01:24:56;99122.47;;;18.30;48.66
33163;BME280;29282;45.656;11.302;2023-12-04T01:27:24;99117.81;;;18.31;48.63
33163;BME280;29282;45.656;11.302;2023-12-04T01:29:50;99124.91;;;18.32;48.47
33163;BME280;29282;45.656;11.302;2023-12-04T01:32:15;99116.97;;;18.30;48.61
33163;BME280;29282;45.656;11.302;2023-12-04T01:34:40;99111.50;;;18.30;48.54
33163;BME280;29282;45.656;11.302;2023-12-04T01:37:06;99113.13;;;18.31;48.47
33163;BME280;29282;45.656;11.302;2023-12-04T01:39:31;99118.09;;;18.29;48.71
33163;BME280;29282;45.656;11.302;2023-12-04T01:41:57;99117.81;;;18.31;48.58
33163;BME280;29282;45.656;11.302;2023-12-04T01:44:22;99113.13;;;18.31;48.38
33163;BME280;29282;45.656;11.302;2023-12-04T01:46:48;99113.13;;;18.31;48.50
33163;BME280;29282;45.656;11.302;2023-12-04T01:49:14;99112.00;;;18.33;48.35
33163;BME280;29282;45.656;11.302;2023-12-04T01:51:40;99107.03;;;18.35;48.49
33163;BME280;29282;45.656;11.302;2023-12-04T01:54:06;99119.41;;;18.32;48.32
33163;BME280;29282;45.656;11.302;2023-12-04T01:56:34;99113.13;;;18.31;48.54
33163;BME280;29282;45.656;11.302;2023-12-04T01:59:01;99111.50;;;18.30;48.46
33163;BME280;29282;45.656;11.302;2023-12-04T02:01:27;99100.50;;;18.30;48.25
33163;BME280;29282;45.656;11.302;2023-12-04T02:03:53;99099.72;;;18.30;48.22
33163;BME280;29282;45.656;11.302;2023-12-04T02:06:19;99101.66;;;18.29;48.21
33163;BME280;29282;45.656;11.302;2023-12-04T02:08:48;99106.00;;;18.30;48.18
33163;BME280;29282;45.656;11.302;2023-12-04T02:11:13;99097.28;;;18.28;48.43
33163;BME280;29282;45.656;11.302;2023-12-04T02:13:42;99090.16;;;18.27;48.31
33163;BME280;29282;45.656;11.302;2023-12-04T02:16:09;99088.25;;;18.28;48.43
33163;BME280;29282;45.656;11.302;2023-12-04T02:18:36;99087.13;;;18.29;48.43
33163;BME280;29282;45.656;11.302;2023-12-04T02:21:01;99079.19;;;18.27;48.62
33163;BME280;29282;45.656;11.302;2023-12-04T02:23:27;99075.34;;;18.28;48.40
33163;BME280;29282;45.656;11.302;2023-12-04T02:26:00;99064.38;;;18.28;48.13
33163;BME280;29282;45.656;11.302;2023-12-04T02:28:30;99060.50;;;18.29;48.31
33163;BME280;29282;45.656;11.302;2023-12-04T02:30:58;99060.50;;;18.29;48.17
33163;BME280;29282;45.656;11.302;2023-12-04T02:33:25;99066.78;;;18.30;48.06
33163;BME280;29282;45.656;11.302;2023-12-04T02:35:53;99059.38;;;18.30;48.08
33163;BME280;29282;45.656;11.302;2023-12-04T02:38:19;99065.69;;;18.31;48.16
33163;BME280;29282;45.656;11.302;2023-12-04T02:40:48;99071.19;;;18.31;48.13
33163;BME280;29282;45.656;11.302;2023-12-04T02:43:14;99070.34;;;18.30;48.09
33163;BME280;29282;45.656;11.302;2023-12-04T02:45:40;99072.78;;;18.32;48.11
33163;BME280;29282;45.656;11.302;2023-12-04T02:48:06;99073.59;;;18.33;48.03
33163;BME280;29282;45.656;11.302;2023-12-04T02:50:31;99076.34;;;18.33;48.21
33163;BME280;29282;45.656;11.302;2023-12-04T02:52:57;99075.53;;;18.32;48.12
33163;BME280;29282;45.656;11.302;2023-12-04T02:55:22;99073.59;;;18.33;47.89
33163;BME280;29282;45.656;11.302;2023-12-04T02:57:47;99076.84;;;18.35;47.91
33163;BME280;29282;45.656;11.302;2023-12-04T03:00:13;99073.25;;;18.34;48.01
33163;BME280;29282;45.656;11.302;2023-12-04T03:02:39;99069.72;;;18.34;47.89
33163;BME280;29282;45.656;11.302;2023-12-04T03:05:04;99076.00;;;18.34;47.97
33163;BME280;29282;45.656;11.302;2023-12-04T03:07:30;99081.19;;;18.36;47.97
33163;BME280;29282;45.656;11.302;2023-12-04T03:09:55;99086.97;;;18.34;47.68
33163;BME280;29282;45.656;11.302;2023-12-04T03:12:21;99079.88;;;18.33;47.81
33163;BME280;29282;45.656;11.302;2023-12-04T03:14:46;99087.31;;;18.33;47.74
33163;BME280;29282;45.656;11.302;2023-12-04T03:17:12;99088.13;;;18.33;47.79
33163;BME280;29282;45.656;11.302;2023-12-04T03:19:37;99099.88;;;18.34;47.85
33163;BME280;29282;45.656;11.302;2023-12-04T03:22:03;99095.53;;;18.33;47.81
33163;BME280;29282;45.656;11.302;2023-12-04T03:24:28;99084.06;;;18.30;47.80
33163;BME280;29282;45.656;11.302;2023-12-04T03:26:54;99082.16;;;18.31;47.94
33163;BME280;29282;45.656;11.302;2023-12-04T03:29:19;99086.50;;;18.32;47.92
33163;BME280;29282;45.656;11.302;2023-12-04T03:31:45;99084.56;;;18.33;48.01
33163;BME280;29282;45.656;11.302;2023-12-04T03:34:11;99077.13;;;18.33;47.79
33163;BME280;29282;45.656;11.302;2023-12-04T03:36:36;99078.28;;;18.32;47.73
33163;BME280;29282;45.656;11.302;2023-12-04T03:39:01;99071.19;;;18.31;48.02
33163;BME280;29282;45.656;11.302;2023-12-04T03:41:28;99064.84;;;18.30;47.82
33163;BME280;29282;45.656;11.302;2023-12-04T03:46:28;99062.94;;;18.31;47.80
33163;BME280;29282;45.656;11.302;2023-12-04T03:48:55;99064.84;;;18.30;47.86
33163;BME280;29282;45.656;11.302;2023-12-04T03:51:23;99062.13;;;18.30;48.00
33163;BME280;29282;45.656;11.302;2023-12-04T03:53:49;99059.38;;;18.30;47.96
33163;BME280;29282;45.656;11.302;2023-12-04T03:56:14;99061.00;;;18.31;47.76
33163;BME280;29282;45.656;11.302;2023-12-04T03:58:40;99056.63;;;18.30;47.76
33163;BME280;29282;45.656;11.302;2023-12-04T04:01:06;99055.00;;;18.29;47.93
33163;BME280;29282;45.656;11.302;2023-12-04T04:03:31;99051.97;;;18.31;47.80
33163;BME280;29282;45.656;11.302;2023-12-04T04:05:57;99040.16;;;18.30;47.57
33163;BME280;29282;45.656;11.302;2023-12-04T04:08:22;99047.28;;;18.31;47.51
33163;BME280;29282;45.656;11.302;2023-12-04T04:10:48;99037.41;;;18.30;47.59
33163;BME280;29282;45.656;11.302;2023-12-04T04:13:13;99041.31;;;18.29;47.50
33163;BME280;29282;45.656;11.302;2023-12-04T04:15:39;99042.09;;;18.30;47.82
33163;BME280;29282;45.656;11.302;2023-12-04T04:18:04;99038.56;;;18.29;47.74
33163;BME280;29282;45.656;11.302;2023-12-04T04:20:30;99041.31;;;18.29;47.61
33163;BME280;29282;45.656;11.302;2023-12-04T04:22:55;99038.56;;;18.29;47.75
33163;BME280;29282;45.656;11.302;2023-12-04T04:25:21;99033.88;;;18.30;47.52
33163;BME280;29282;45.656;11.302;2023-12-04T04:27:49;99035.81;;;18.29;47.73
33163;BME280;29282;45.656;11.302;2023-12-04T04:30:14;99034.69;;;18.30;47.54
33163;BME280;29282;45.656;11.302;2023-12-04T04:32:41;99023.72;;;18.30;47.61
33163;BME280;29282;45.656;11.302;2023-12-04T04:35:07;99025.97;;;18.28;47.71
33163;BME280;29282;45.656;11.302;2023-12-04T04:37:33;99016.59;;;18.29;47.73
33163;BME280;29282;45.656;11.302;2023-12-04T04:39:58;99020.16;;;18.30;47.44
33163;BME280;29282;45.656;11.302;2023-12-04T04:42:23;99027.59;;;18.29;47.48
33163;BME280;29282;45.656;11.302;2023-12-04T04:44:49;99030.84;;;18.31;47.59
33163;BME280;29282;45.656;11.302;2023-12-04T04:47:14;99029.19;;;18.30;47.47
33163;BME280;29282;45.656;11.302;2023-12-04T04:49:40;99020.50;;;18.28;47.55
33163;BME280;29282;45.656;11.302;2023-12-04T04:52:07;99010.31;;;18.29;47.84
33163;BME280;29282;45.656;11.302;2023-12-04T04:54:32;99019.84;;;18.31;47.38
33163;BME280;29282;45.656;11.302;2023-12-04T04:56:58;99023.72;;;18.30;47.65
33163;BME280;29282;45.656;11.302;2023-12-04T04:59:23;99022.09;;;18.29;47.52
33163;BME280;29282;45.656;11.302;2023-12-04T05:01:49;99030.31;;;18.29;47.42
33163;BME280;29282;45.656;11.302;2023-12-04T05:04:14;99021.28;;;18.29;47.55
33163;BME280;29282;45.656;11.302;2023-12-04T05:06:40;99022.91;;;18.30;47.48
33163;BME280;29282;45.656;11.302;2023-12-04T05:09:08;99013.06;;;18.29;47.45
33163;BME280;29282;45.656;11.302;2023-12-04T05:11:34;99016.59;;;18.29;47.32
33163;BME280;29282;45.656;11.302;2023-12-04T05:13:59;99008.72;;;18.28;47.43
33163;BME280;29282;45.656;11.302;2023-12-04T05:16:25;99011.75;;;18.26;47.56
33163;BME280;29282;45.656;11.302;2023-12-04T05:18:50;99015.63;;;18.25;47.49
33163;BME280;29282;45.656;11.302;2023-12-04T05:21:15;99016.44;;;18.26;47.47
33163;BME280;29282;45.656;11.302;2023-12-04T05:23:41;99007.69;;;18.24;47.55
33163;BME280;29282;45.656;11.302;2023-12-04T05:26:07;99014.00;;;18.24;47.69
33163;BME280;29282;45.656;11.302;2023-12-04T05:28:33;98997.53;;;18.24;47.54
33163;BME280;29282;45.656;11.302;2023-12-04T05:30:59;98996.72;;;18.24;47.84
33163;BME280;29282;45.656;11.302;2023-12-04T05:33:25;98999.00;;;18.22;47.82
33163;BME280;29282;45.656;11.302;2023-12-04T05:35:50;98994.78;;;18.24;47.63
33163;BME280;29282;45.656;11.302;2023-12-04T05:38:17;98988.50;;;18.24;47.42
33163;BME280;29282;45.656;11.302;2023-12-04T05:40:43;98987.69;;;18.23;47.54
33163;BME280;29282;45.656;11.302;2023-12-04T05:43:09;98986.56;;;18.24;47.50
33163;BME280;29282;45.656;11.302;2023-12-04T05:45:35;98981.91;;;18.25;47.46
33163;BME280;29282;45.656;11.302;2023-12-04T05:48:01;98984.66;;;18.25;47.37
33163;BME280;29282;45.656;11.302;2023-12-04T05:50:26;98992.56;;;18.26;47.23
33163;BME280;29282;45.656;11.302;2023-12-04T05:52:52;98987.88;;;18.27;47.29
33163;BME280;29282;45.656;11.302;2023-12-04T05:55:17;98982.09;;;18.28;47.21
33163;BME280;29282;45.656;11.302;2023-12-04T05:57:44;98989.19;;;18.29;47.37
33163;BME280;29282;45.656;11.302;2023-12-04T06:00:10;98994.66;;;18.29;47.14
33163;BME280;29282;45.656;11.302;2023-12-04T06:02:42;98981.13;;;18.33;47.21
33163;BME280;29282;45.656;11.302;2023-12-04T06:05:09;98985.47;;;18.34;47.02
33163;BME280;29282;45.656;11.302;2023-12-04T06:07:35;98981.97;;;18.42;47.04
33163;BME280;29282;45.656;11.302;2023-12-04T06:10:02;98997.63;;;18.50;46.78
33163;BME280;29282;45.656;11.302;2023-12-04T06:12:30;98987.03;;;18.58;46.74
33163;BME280;29282;45.656;11.302;2023-12-04T06:14:55;98996.25;;;18.62;46.74
33163;BME280;29282;45.656;11.302;2023-12-04T06:17:21;98995.59;;;18.65;46.87
33163;BME280;29282;45.656;11.302;2023-12-04T06:19:46;98998.66;;;18.63;46.76
33163;BME280;29282;45.656;11.302;2023-12-04T06:22:12;99008.19;;;18.66;46.60
33163;BME280;29282;45.656;11.302;2023-12-04T06:24:38;99008.53;;;18.64;46.75
33163;BME280;29282;45.656;11.302;2023-12-04T06:27:04;99012.53;;;18.67;46.83
33163;BME280;29282;45.656;11.302;2023-12-04T06:29:31;99010.94;;;18.66;46.63
33163;BME280;29282;45.656;11.302;2023-12-04T06:31:58;99017.88;;;18.63;47.05
33163;BME280;29282;45.656;11.302;2023-12-04T06:34:24;99019.50;;;18.64;46.75
33163;BME280;29282;45.656;11.302;2023-12-04T06:36:49;99019.81;;;18.63;47.03
33163;BME280;29282;45.656;11.302;2023-12-04T06:39:16;99016.25;;;18.62;46.75
33163;BME280;29282;45.656;11.302;2023-12-04T06:41:42;99014.66;;;18.61;46.95
33163;BME280;29282;45.656;11.302;2023-12-04T06:44:09;99010.25;;;18.60;46.71
33163;BME280;29282;45.656;11.302;2023-12-04T06:46:39;99019.00;;;18.62;46.72
33163;BME280;29282;45.656;11.302;2023-12-04T06:49:06;99019.34;;;18.69;46.60
33163;BME280;29282;45.656;11.302;2023-12-04T06:51:34;99000.03;;;18.74;46.84
33163;BME280;29282;45.656;11.302;2023-12-04T06:54:03;99018.31;;;18.88;46.75
33163;BME280;29282;45.656;11.302;2023-12-04T06:56:28;99010.88;;;18.97;46.08
33163;BME280;29282;45.656;11.302;2023-12-04T06:58:54;99011.69;;;19.06;46.13
33163;BME280;29282;45.656;11.302;2023-12-04T07:01:22;99013.81;;;19.18;45.50
33163;BME280;29282;45.656;11.302;2023-12-04T07:03:47;99008.50;;;19.21;45.70
33163;BME280;29282;45.656;11.302;2023-12-04T07:06:13;99008.47;;;19.30;45.48
33163;BME280;29282;45.656;11.302;2023-12-04T07:08:39;99007.03;;;19.33;45.47
33163;BME280;29282;45.656;11.302;2023-12-04T07:11:06;99006.56;;;19.31;45.65
33163;BME280;29282;45.656;11.302;2023-12-04T07:13:33;99008.97;;;19.32;45.68
33163;BME280;29282;45.656;11.302;2023-12-04T07:15:58;99000.44;;;19.34;45.76
33163;BME280;29282;45.656;11.302;2023-12-04T07:18:25;99000.44;;;19.34;45.65
33163;BME280;29282;45.656;11.302;2023-12-04T07:20:50;98993.28;;;19.33;45.72
33163;BME280;29282;45.656;11.302;2023-12-04T07:23:16;98992.81;;;19.39;45.62
33163;BME280;29282;45.656;11.302;2023-12-04T07:25:42;98988.63;;;19.42;45.87
33163;BME280;29282;45.656;11.302;2023-12-04T07:28:07;98992.50;;;19.41;45.63
33163;BME280;29282;45.656;11.302;2023-12-04T07:30:33;98985.38;;;19.40;45.85
33163;BME280;29282;45.656;11.302;2023-12-04T07:32:58;98985.22;;;19.45;45.59
33163;BME280;29282;45.656;11.302;2023-12-04T07:35:25;98984.06;;;19.46;46.08
33163;BME280;29282;45.656;11.302;2023-12-04T07:37:52;98990.22;;;19.52;45.53
33163;BME280;29282;45.656;11.302;2023-12-04T07:40:17;98991.69;;;19.49;46.45
33163;BME280;29282;45.656;11.302;2023-12-04T07:42:43;98980.53;;;19.45;45.76
33163;BME280;29282;45.656;11.302;2023-12-04T07:45:11;98992.00;;;19.47;45.79
33163;BME280;29282;45.656;11.302;2023-12-04T07:47:37;98998.47;;;19.43;46.10
33163;BME280;29282;45.656;11.302;2023-12-04T07:50:02;99003.66;;;19.44;46.02
33163;BME280;29282;45.656;11.302;2023-12-04T07:52:28;99002.00;;;19.43;46.00
33163;BME280;29282;45.656;11.302;2023-12-04T07:54:53;98998.63;;;19.38;46.17
33163;BME280;29282;45.656;11.302;2023-12-04T07:57:19;98995.09;;;19.37;46.36
33163;BME280;29282;45.656;11.302;2023-12-04T07:59:44;99004.44;;;19.36;46.01
33163;BME280;29282;45.656;11.302;2023-12-04T08:02:10;99003.63;;;19.36;46.10
33163;BME280;29282;45.656;11.302;2023-12-04T08:04:35;98997.19;;;19.32;46.05
33163;BME280;29282;45.656;11.302;2023-12-04T08:07:01;98999.94;;;19.32;46.43
33163;BME280;29282;45.656;11.302;2023-12-04T08:09:27;98994.44;;;19.32;46.05
33163;BME280;29282;45.656;11.302;2023-12-04T08:11:53;98988.44;;;19.30;46.23
33163;BME280;29282;45.656;11.302;2023-12-04T08:14:18;98991.19;;;19.30;46.18
33163;BME280;29282;45.656;11.302;2023-12-04T08:16:44;98988.59;;;19.33;45.91
33163;BME280;29282;45.656;11.302;2023-12-04T08:19:09;98987.97;;;19.28;46.33
33163;BME280;29282;45.656;11.302;2023-12-04T08:21:35;98987.34;;;19.31;46.12
33163;BME280;29282;45.656;11.302;2023-12-04T08:24:00;98987.16;;;19.36;46.10
33163;BME280;29282;45.656;11.302;2023-12-04T08:26:26;98986.00;;;19.37;46.16
33163;BME280;29282;45.656;11.302;2023-12-04T08:28:52;98990.88;;;19.40;46.12
33163;BME280;29282;45.656;11.302;2023-12-04T08:31:17;98988.63;;;19.42;46.07
33163;BME280;29282;45.656;11.302;2023-12-04T08:33:43;99001.84;;;19.40;46.14
33163;BME280;29282;45.656;11.302;2023-12-04T08:36:10;98987.47;;;19.43;46.10
33163;BME280;29282;45.656;11.302;2023-12-04T08:38:35;98980.72;;;19.40;46.18
33163;BME280;29282;45.656;11.302;2023-12-04T08:41:02;98981.50;;;19.41;45.94
33163;BME280;29282;45.656;11.302;2023-12-04T08:43:27;98979.41;;;19.38;45.95
33163;BME280;29282;45.656;11.302;2023-12-04T08:45:54;98982.97;;;19.38;46.11
33163;BME280;29282;45.656;11.302;2023-12-04T08:48:20;98983.59;;;19.35;46.02
33163;BME280;29282;45.656;11.302;2023-12-04T08:50:45;98987.66;;;19.38;46.14
33163;BME280;29282;45.656;11.302;2023-12-04T08:53:11;98988.75;;;19.37;46.09
33163;BME280;29282;45.656;11.302;2023-12-04T08:55:37;98984.41;;;19.36;46.08
33163;BME280;29282;45.656;11.302;2023-12-04T08:58:02;98977.94;;;19.32;46.13
33163;BME280;29282;45.656;11.302;2023-12-04T09:00:28;98982.47;;;19.28;46.39
33163;BME280;29282;45.656;11.302;2023-12-04T09:02:53;98980.84;;;19.27;46.30
33163;BME280;29282;45.656;11.302;2023-12-04T09:05:19;98973.25;;;19.23;46.36
33163;BME280;29282;45.656;11.302;2023-12-04T09:07:45;98982.94;;;19.12;46.80
33163;BME280;29282;45.656;11.302;2023-12-04T09:10:10;98985.84;;;19.07;46.91
33163;BME280;29282;45.656;11.302;2023-12-04T09:12:36;98978.56;;;19.02;47.17
33163;BME280;29282;45.656;11.302;2023-12-04T09:15:04;98965.50;;;18.99;46.58
33163;BME280;29282;45.656;11.302;2023-12-04T09:17:30;98951.28;;;18.97;46.76
33163;BME280;29282;45.656;11.302;2023-12-04T09:19:55;98955.47;;;18.95;46.62
33163;BME280;29282;45.656;11.302;2023-12-04T09:22:21;98948.34;;;18.94;46.46
33163;BME280;29282;45.656;11.302;2023-12-04T09:24:46;98951.94;;;18.94;46.61
33163;BME280;29282;45.656;11.302;2023-12-04T09:27:12;98954.19;;;18.92;46.33
33163;BME280;29282;45.656;11.302;2023-12-04T09:29:37;98958.06;;;18.91;46.60
33163;BME280;29282;45.656;11.302;2023-12-04T09:32:03;98949.31;;;18.89;46.32
33163;BME280;29282;45.656;11.302;2023-12-04T09:34:29;98943.34;;;18.87;46.46
33163;BME280;29282;45.656;11.302;2023-12-04T09:36:54;98953.50;;;18.87;46.60
33163;BME280;29282;45.656;11.302;2023-12-04T09:39:19;98950.78;;;18.87;46.42
33163;BME280;29282;45.656;11.302;2023-12-04T09:41:45;98945.91;;;18.84;46.77
33163;BME280;29282;45.656;11.302;2023-12-04T09:44:12;98930.09;;;18.81;46.59
33163;BME280;29282;45.656;11.302;2023-12-04T09:46:38;98936.72;;;18.80;46.63
33163;BME280;29282;45.656;11.302;2023-12-04T09:49:04;98933.97;;;18.80;46.73
33163;BME280;29282;45.656;11.302;2023-12-04T09:51:30;98937.53;;;18.80;46.42
33163;BME280;29282;45.656;11.302;2023-12-04T09:53:57;98922.19;;;18.79;46.44
33163;BME280;29282;45.656;11.302;2023-12-04T09:56:27;98933.81;;;18.76;46.53
33163;BME280;29282;45.656;11.302;2023-12-04T09:58:58;98933.31;;;18.74;46.62
33163;BME280;29282;45.656;11.302;2023-12-04T10:01:25;98935.25;;;18.73;46.53
33163;BME280;29282;45.656;11.302;2023-12-04T10:03:50;98937.19;;;18.73;46.49
33163;BME280;29282;45.656;11.302;2023-12-04T10:06:16;98930.91;;;18.72;46.56
33163;BME280;29282;45.656;11.302;2023-12-04T10:08:45;98914.75;;;18.71;46.95
33163;BME280;29282;45.656;11.302;2023-12-04T10:11:13;98910.69;;;18.68;46.76
33163;BME280;29282;45.656;11.302;2023-12-04T10:13:42;98897.59;;;18.65;46.80
33163;BME280;29282;45.656;11.302;2023-12-04T10:16:07;98899.84;;;18.63;46.64
33163;BME280;29282;45.656;11.302;2023-12-04T10:18:33;98898.25;;;18.62;46.81
33163;BME280;29282;45.656;11.302;2023-12-04T10:21:00;98896.63;;;18.61;46.62
33163;BME280;29282;45.656;11.302;2023-12-04T10:23:43;98886.78;;;18.60;46.72
33163;BME280;29282;45.656;11.302;2023-12-04T10:26:09;98880.81;;;18.58;46.62
33163;BME280;29282;45.656;11.302;2023-12-04T10:28:35;98865.44;;;18.57;46.69
33163;BME280;29282;45.656;11.302;2023-12-04T10:31:01;98854.00;;;18.55;46.80
33163;BME280;29282;45.656;11.302;2023-12-04T10:33:28;98850.47;;;18.54;46.76
33163;BME280;29282;45.656;11.302;2023-12-04T10:35:54;98834.31;;;18.53;46.85
33163;BME280;29282;45.656;11.302;2023-12-04T10:38:27;98832.69;;;18.52;46.79
33163;BME280;29282;45.656;11.302;2023-12-04T10:40:53;98823.97;;;18.50;46.69
33163;BME280;29282;45.656;11.302;2023-12-04T10:43:22;98810.25;;;18.50;46.84
33163;BME280;29282;45.656;11.302;2023-12-04T10:45:49;98790.88;;;18.46;46.75
33163;BME280;29282;45.656;11.302;2023-12-04T10:48:16;98785.72;;;18.45;46.79
33163;BME280;29282;45.656;11.302;2023-12-04T10:50:44;98794.75;;;18.45;46.77
33163;BME280;29282;45.656;11.302;2023-12-04T10:53:12;98798.94;;;18.43;47.03
33163;BME280;29282;45.656;11.302;2023-12-04T10:55:39;98799.44;;;18.45;46.88
33163;BME280;29282;45.656;11.302;2023-12-04T10:58:09;98798.94;;;18.43;46.87
33163;BME280;29282;45.656;11.302;2023-12-04T11:00:42;98781.19;;;18.40;46.83
33163;BME280;29282;45.656;11.302;2023-12-04T11:03:10;98782.34;;;18.39;46.97
33163;BME280;29282;45.656;11.302;2023-12-04T11:05:39;98782.16;;;18.36;46.78
33163;BME280;29282;45.656;11.302;2023-12-04T11:08:07;98789.25;;;18.37;47.05
33163;BME280;29282;45.656;11.302;2023-12-04T11:10:47;98799.44;;;18.36;46.96
33163;BME280;29282;45.656;11.302;2023-12-04T11:13:40;98803.63;;;18.34;46.91
33163;BME280;29282;45.656;11.302;2023-12-04T11:18:43;98798.78;;;18.30;46.99
33163;BME280;29282;45.656;11.302;2023-12-04T11:21:10;98783.16;;;18.31;46.96
33163;BME280;29282;45.656;11.302;2023-12-04T11:23:37;98777.97;;;18.29;46.97
33163;BME280;29282;45.656;11.302;2023-12-04T11:26:03;98772.81;;;18.28;47.00
33163;BME280;29282;45.656;11.302;2023-12-04T11:28:32;98765.69;;;18.27;46.96
33163;BME280;29282;45.656;11.302;2023-12-04T11:30:58;98761.84;;;18.28;47.14
33163;BME280;29282;45.656;11.302;2023-12-04T11:33:24;98760.53;;;18.25;47.03
33163;BME280;29282;45.656;11.302;2023-12-04T11:35:50;98752.63;;;18.24;47.06
33163;BME280;29282;45.656;11.302;2023-12-04T11:38:17;98754.25;;;18.25;47.00
33163;BME280;29282;45.656;11.302;2023-12-04T11:40:43;98749.06;;;18.23;47.15
33163;BME280;29282;45.656;11.302;2023-12-04T11:43:24;98732.63;;;18.23;47.14
33163;BME280;29282;45.656;11.302;2023-12-04T11:45:50;98731.00;;;18.22;47.13
33163;BME280;29282;45.656;11.302;2023-12-04T11:48:15;98724.72;;;18.22;47.00
33163;BME280;29282;45.656;11.302;2023-12-04T11:50:43;98719.72;;;18.24;47.05
33163;BME280;29282;45.656;11.302;2023-12-04T11:53:10;98728.75;;;18.33;46.99
33163;BME280;29282;45.656;11.302;2023-12-04T11:55:40;98727.31;;;18.44;46.55
33163;BME280;29282;45.656;11.302;2023-12-04T11:58:11;98731.97;;;18.52;46.26
33163;BME280;29282;45.656;11.302;2023-12-04T12:00:37;98732.44;;;18.63;45.98
33163;BME280;29282;45.656;11.302;2023-12-04T12:03:07;98725.03;;;18.72;45.89
33163;BME280;29282;45.656;11.302;2023-12-04T12:05:35;98722.91;;;18.87;45.56
33163;BME280;29282;45.656;11.302;2023-12-04T12:08:05;98711.13;;;18.86;45.65
33163;BME280;29282;45.656;11.302;2023-12-04T12:10:32;98711.56;;;18.97;45.46
33163;BME280;29282;45.656;11.302;2023-12-04T12:13:01;98708.81;;;18.97;45.72
33163;BME280;29282;45.656;11.302;2023-12-04T12:15:27;98704.09;;;19.06;45.33
33163;BME280;29282;45.656;11.302;2023-12-04T12:17:53;98693.13;;;19.06;45.42
33163;BME280;29282;45.656;11.302;2023-12-04T12:20:19;98698.09;;;19.13;45.24
33163;BME280;29282;45.656;11.302;2023-12-04T12:22:48;98692.63;;;19.13;45.57
33163;BME280;29282;45.656;11.302;2023-12-04T12:25:14;98689.22;;;19.16;45.24
33163;BME280;29282;45.656;11.302;2023-12-04T12:27:40;98685.66;;;19.15;45.18
33163;BME280;29282;45.656;11.302;2023-12-04T12:30:07;98674.34;;;19.17;45.26
33163;BME280;29282;45.656;11.302;2023-12-04T12:32:33;98667.22;;;19.24;44.97
33163;BME280;29282;45.656;11.302;2023-12-04T12:34:59;98667.88;;;19.21;45.09
33163;BME280;29282;45.656;11.302;2023-12-04T12:37:25;98663.50;;;19.20;45.29
33163;BME280;29282;45.656;11.302;2023-12-04T12:39:51;98658.16;;;19.24;45.11
33163;BME280;29282;45.656;11.302;2023-12-04T12:42:28;98652.97;;;19.22;45.10
33163;BME280;29282;45.656;11.302;2023-12-04T12:44:54;98668.66;;;19.22;45.19
33163;BME280;29282;45.656;11.302;2023-12-04T12:47:21;98655.28;;;19.20;45.93
33163;BME280;29282;45.656;11.302;2023-12-04T12:49:47;98650.59;;;19.21;45.41
33163;BME280;29282;45.656;11.302;2023-12-04T12:52:13;98650.72;;;19.24;45.39